createdAt,value
2022-12-15T00:02:30.931Z,-8.05
2022-12-15T00:05:16.682Z,-8.11
2022-12-15T00:08:02.989Z,-8.08
2022-12-15T00:10:48.690Z,-8.10
2022-12-15T00:13:34.985Z,-8.10
2022-12-15T00:16:24.161Z,-8.09
2022-12-15T00:19:09.785Z,-8.07
2022-12-15T00:21:55.728Z,-8.05
2022-12-15T00:24:41.931Z,-8.07
2022-12-15T00:27:27.220Z,-8.06
2022-12-15T00:30:12.778Z,-8.06
2022-12-15T00:32:59.333Z,-8.07
2022-12-15T00:35:44.608Z,-8.09
2022-12-15T00:38:32.282Z,-8.10
2022-12-15T00:41:00.609Z,-8.09
2022-12-15T00:43:29.386Z,-7.98
2022-12-15T00:46:15.276Z,-8.00
2022-12-15T00:48:44.930Z,-8.05
2022-12-15T00:51:12.738Z,-8.12
2022-12-15T00:53:58.193Z,-8.10
2022-12-15T00:56:43.668Z,-8.12
2022-12-15T00:59:29.201Z,-8.12
2022-12-15T01:02:15.328Z,-8.12
2022-12-15T01:05:02.203Z,-8.12
2022-12-15T01:07:49.781Z,-8.13
2022-12-15T01:10:36.168Z,-8.12
2022-12-15T01:13:22.123Z,-8.05
2022-12-15T01:16:07.932Z,-8.01
2022-12-15T01:18:56.790Z,-8.05
2022-12-15T01:21:26.799Z,-8.02
2022-12-15T01:23:54.676Z,-8.02
2022-12-15T01:26:22.461Z,-8.00
2022-12-15T01:28:50.057Z,-7.91
2022-12-15T01:31:17.688Z,-7.82
2022-12-15T01:33:45.298Z,-7.80
2022-12-15T01:36:14.292Z,-7.78
2022-12-15T01:38:43.888Z,-7.75
2022-12-15T01:41:12.457Z,-7.68
2022-12-15T01:43:41.896Z,-7.65
2022-12-15T01:46:12.066Z,-7.59
2022-12-15T01:48:43.979Z,-7.56
2022-12-15T01:51:22.860Z,-7.53
2022-12-15T01:53:56.751Z,-7.51
2022-12-15T01:56:36.835Z,-7.49
2022-12-15T01:59:09.752Z,-7.46
2022-12-15T02:01:37.657Z,-7.38
2022-12-15T02:04:07.735Z,-7.38
2022-12-15T02:06:38.002Z,-7.39
2022-12-15T02:09:09.163Z,-7.37
2022-12-15T02:11:50.673Z,-7.30
2022-12-15T02:14:26.660Z,-7.29
2022-12-15T02:17:14.756Z,-7.31
2022-12-15T02:20:23.239Z,-7.35
2022-12-15T02:23:09.743Z,-7.35
2022-12-15T02:25:56.743Z,-7.36
2022-12-15T02:28:38.320Z,-7.31
2022-12-15T02:31:27.772Z,-7.34
2022-12-15T02:34:01.604Z,-7.36
2022-12-15T02:36:36.744Z,-7.36
2022-12-15T02:39:06.261Z,-7.36
2022-12-15T02:41:37.627Z,-7.37
2022-12-15T02:44:12.232Z,-7.37
2022-12-15T02:46:56.772Z,-7.37
2022-12-15T02:49:38.204Z,-7.32
2022-12-15T02:52:18.015Z,-7.34
2022-12-15T02:55:05.914Z,-7.30
2022-12-15T02:57:40.322Z,-7.35
2022-12-15T03:00:10.981Z,-7.37
2022-12-15T03:02:43.755Z,-7.38
2022-12-15T03:05:16.757Z,-7.39
2022-12-15T03:07:45.738Z,-7.40
2022-12-15T03:10:19.757Z,-7.39
2022-12-15T03:12:47.859Z,-7.35
2022-12-15T03:15:15.577Z,-7.41
2022-12-15T03:17:45.833Z,-7.41
2022-12-15T03:20:14.739Z,-7.42
2022-12-15T03:22:42.319Z,-7.39
2022-12-15T03:25:10.757Z,-7.43
2022-12-15T03:28:03.755Z,-7.46
2022-12-15T03:30:35.832Z,-7.47
2022-12-15T03:33:05.842Z,-7.45
2022-12-15T03:35:34.209Z,-7.47
2022-12-15T03:38:03.751Z,-7.48
2022-12-15T03:40:31.395Z,-7.49
2022-12-15T03:42:59.288Z,-7.50
2022-12-15T03:45:29.519Z,-7.50
2022-12-15T03:47:58.828Z,-7.51
2022-12-15T03:50:31.338Z,-7.49
2022-12-15T03:53:00.718Z,-7.50
2022-12-15T03:55:29.126Z,-7.51
2022-12-15T03:57:57.050Z,-7.51
2022-12-15T04:00:25.879Z,-7.51
2022-12-15T04:02:54.066Z,-7.51
2022-12-15T04:05:25.630Z,-7.50
2022-12-15T04:07:57.740Z,-7.49
2022-12-15T04:10:51.744Z,-7.49
2022-12-15T04:13:21.464Z,-7.50
2022-12-15T04:15:49.746Z,-7.51
2022-12-15T04:18:18.284Z,-7.46
2022-12-15T04:20:50.191Z,-7.47
2022-12-15T04:23:20.861Z,-7.39
2022-12-15T04:26:09.528Z,-7.40
2022-12-15T04:28:54.926Z,-7.37
2022-12-15T04:31:47.374Z,-7.34
2022-12-15T04:34:36.311Z,-7.29
2022-12-15T04:37:21.688Z,-7.22
2022-12-15T04:40:10.414Z,-7.16
2022-12-15T04:43:00.438Z,-7.14
2022-12-15T04:45:45.547Z,-7.11
2022-12-15T04:48:31.562Z,-7.06
2022-12-15T04:51:17.670Z,-7.03
2022-12-15T04:54:03.737Z,-6.97
2022-12-15T04:56:50.980Z,-6.94
2022-12-15T04:59:36.684Z,-6.92
2022-12-15T05:02:23.791Z,-6.92
2022-12-15T05:05:09.729Z,-6.91
2022-12-15T05:07:55.239Z,-6.91
2022-12-15T05:11:05.735Z,-6.90
2022-12-15T05:13:55.941Z,-6.87
2022-12-15T05:16:42.771Z,-6.88
2022-12-15T05:19:32.758Z,-6.89
2022-12-15T05:22:20.793Z,-6.90
2022-12-15T05:25:05.883Z,-6.91
2022-12-15T05:27:52.465Z,-6.93
2022-12-15T05:30:38.962Z,-6.94
2022-12-15T05:33:06.941Z,-6.91
2022-12-15T05:35:35.329Z,-6.95
2022-12-15T05:38:03.136Z,-7.01
2022-12-15T05:40:31.748Z,-7.05
2022-12-15T05:43:00.202Z,-7.04
2022-12-15T05:45:29.425Z,-7.03
2022-12-15T05:47:57.752Z,-6.91
2022-12-15T05:50:25.398Z,-6.98
2022-12-15T05:52:53.049Z,-7.11
2022-12-15T05:55:20.932Z,-7.14
2022-12-15T05:57:52.562Z,-7.19
2022-12-15T06:00:20.746Z,-7.25
2022-12-15T06:02:50.771Z,-7.30
2022-12-15T06:05:18.719Z,-7.27
2022-12-15T06:07:46.387Z,-7.29
2022-12-15T06:10:14.006Z,-7.28
2022-12-15T06:12:43.753Z,-7.26
2022-12-15T06:15:13.167Z,-7.22
2022-12-15T06:17:40.829Z,-7.21
2022-12-15T06:20:14.735Z,-7.19
2022-12-15T06:22:49.605Z,-7.17
2022-12-15T06:25:18.748Z,-7.16
2022-12-15T06:27:46.836Z,-7.14
2022-12-15T06:30:18.170Z,-7.13
2022-12-15T06:32:49.894Z,-7.13
2022-12-15T06:35:19.608Z,-7.09
2022-12-15T06:37:47.271Z,-7.11
2022-12-15T06:40:39.441Z,-7.12
2022-12-15T06:43:07.745Z,-7.15
2022-12-15T06:45:37.198Z,-7.15
2022-12-15T06:48:30.750Z,-7.12
2022-12-15T06:51:14.956Z,-7.15
2022-12-15T06:53:48.673Z,-7.22
2022-12-15T06:56:44.646Z,-7.28
2022-12-15T06:59:13.547Z,-7.28
2022-12-15T07:01:41.580Z,-7.27
2022-12-15T07:04:12.185Z,-7.25
2022-12-15T07:06:42.237Z,-7.24
2022-12-15T07:09:16.744Z,-7.24
2022-12-15T07:11:45.102Z,-7.22
2022-12-15T07:14:13.427Z,-7.20
2022-12-15T07:16:41.419Z,-7.26
2022-12-15T07:19:12.681Z,-7.30
2022-12-15T07:21:42.743Z,-7.31
2022-12-15T07:24:12.795Z,-7.32
2022-12-15T07:26:40.664Z,-7.34
2022-12-15T07:29:09.452Z,-7.36
2022-12-15T07:31:37.884Z,-7.38
2022-12-15T07:34:05.549Z,-7.40
2022-12-15T07:36:33.163Z,-7.40
2022-12-15T07:39:04.767Z,-7.41
2022-12-15T07:41:32.620Z,-7.43
2022-12-15T07:44:00.306Z,-7.44
2022-12-15T07:46:29.080Z,-7.48
2022-12-15T07:48:56.851Z,-7.53
2022-12-15T07:51:24.631Z,-7.54
2022-12-15T07:53:54.712Z,-7.57
2022-12-15T07:56:24.728Z,-7.57
2022-12-15T07:58:54.069Z,-7.57
2022-12-15T08:01:21.762Z,-7.57
2022-12-15T08:03:50.054Z,-7.56
2022-12-15T08:06:18.846Z,-7.55
2022-12-15T08:08:50.802Z,-7.53
2022-12-15T08:11:21.104Z,-7.48
2022-12-15T08:14:12.024Z,-7.45
2022-12-15T08:16:39.841Z,-7.44
2022-12-15T08:19:11.594Z,-7.40
2022-12-15T08:21:40.088Z,-7.40
2022-12-15T08:24:08.597Z,-7.36
2022-12-15T08:26:38.128Z,-7.32
2022-12-15T08:31:57.305Z,-7.20
2022-12-15T08:34:25.072Z,-7.07
2022-12-15T08:36:52.701Z,-7.00
2022-12-15T08:39:20.403Z,-6.92
2022-12-15T08:41:48.541Z,-6.85
2022-12-15T08:44:17.701Z,-6.79
2022-12-15T08:46:45.595Z,-6.76
2022-12-15T08:49:17.911Z,-6.69
2022-12-15T08:51:50.030Z,-6.62
2022-12-15T08:54:19.741Z,-6.56
2022-12-15T08:56:47.359Z,-6.53
2022-12-15T08:59:15.311Z,-6.49
2022-12-15T09:01:45.108Z,-6.45
2022-12-15T09:04:15.843Z,-6.41
2022-12-15T09:06:44.023Z,-6.34
2022-12-15T09:09:16.250Z,-6.26
2022-12-15T09:11:45.407Z,-6.17
2022-12-15T09:14:13.239Z,-6.05
2022-12-15T09:16:42.008Z,-5.98
2022-12-15T09:19:11.524Z,-5.91
2022-12-15T09:21:40.723Z,-5.87
2022-12-15T09:24:08.664Z,-5.82
2022-12-15T09:29:27.874Z,-5.71
2022-12-15T09:31:55.453Z,-5.66
2022-12-15T09:34:24.807Z,-5.59
2022-12-15T09:36:52.526Z,-5.48
2022-12-15T09:39:21.885Z,-5.39
2022-12-15T09:41:54.709Z,-5.29
2022-12-15T09:44:48.759Z,-5.18
2022-12-15T09:47:24.833Z,-5.05
2022-12-15T09:49:57.597Z,-4.92
2022-12-15T09:52:28.947Z,-4.81
2022-12-15T09:54:58.164Z,-4.72
2022-12-15T09:57:38.294Z,-4.66
2022-12-15T10:00:14.837Z,-4.53
2022-12-15T10:03:18.456Z,-4.46
2022-12-15T10:08:50.996Z,-4.32
2022-12-15T10:11:44.691Z,-4.25
2022-12-15T10:14:27.585Z,-4.16
2022-12-15T10:17:06.268Z,-4.08
2022-12-15T10:19:40.713Z,-4.04
2022-12-15T10:22:14.963Z,-3.98
2022-12-15T10:27:51.785Z,-3.83
2022-12-15T10:30:23.153Z,-3.77
2022-12-15T10:32:58.252Z,-3.70
2022-12-15T10:35:29.539Z,-3.63
2022-12-15T10:38:06.731Z,-3.60
2022-12-15T10:40:50.415Z,-3.51
2022-12-15T10:43:26.705Z,-3.45
2022-12-15T10:46:05.989Z,-3.38
2022-12-15T10:48:33.735Z,-3.30
2022-12-15T10:51:21.287Z,-3.23
2022-12-15T10:53:53.130Z,-3.15
2022-12-15T10:56:30.649Z,-3.10
2022-12-15T10:59:03.844Z,-3.03
2022-12-15T11:01:33.896Z,-2.88
2022-12-15T11:04:02.105Z,-2.88
2022-12-15T11:06:32.267Z,-2.84
2022-12-15T11:09:10.720Z,-2.79
2022-12-15T11:12:11.857Z,-2.73
2022-12-15T11:18:06.324Z,-2.62
2022-12-15T11:20:38.380Z,-2.49
2022-12-15T11:23:12.964Z,-2.39
2022-12-15T11:25:46.012Z,-2.40
2022-12-15T11:28:19.729Z,-2.34
2022-12-15T11:30:54.842Z,-2.32
2022-12-15T11:33:23.393Z,-2.25
2022-12-15T11:36:07.724Z,-2.23
2022-12-15T11:38:43.562Z,-2.17
2022-12-15T11:41:24.037Z,-2.16
2022-12-15T11:44:09.725Z,-2.14
2022-12-15T11:46:49.390Z,-2.08
2022-12-15T11:50:02.634Z,-2.04
2022-12-15T11:53:08.641Z,-2.02
2022-12-15T11:55:48.366Z,-1.96
2022-12-15T11:58:53.724Z,-1.93
2022-12-15T12:01:51.648Z,-1.86
2022-12-15T12:04:25.897Z,-1.86
2022-12-15T12:07:08.146Z,-1.82
2022-12-15T12:09:37.825Z,-1.82
2022-12-15T12:12:16.192Z,-1.80
2022-12-15T12:14:57.131Z,-1.76
2022-12-15T12:17:40.011Z,-1.72
2022-12-15T12:20:16.304Z,-1.67
2022-12-15T12:22:50.648Z,-1.66
2022-12-15T12:25:21.723Z,-1.64
2022-12-15T12:27:56.948Z,-1.61
2022-12-15T12:30:28.592Z,-1.56
2022-12-15T12:33:04.903Z,-1.53
2022-12-15T12:35:39.689Z,-1.50
2022-12-15T12:38:10.498Z,-1.47
2022-12-15T12:40:49.831Z,-1.45
2022-12-15T12:43:32.963Z,-1.40
2022-12-15T12:46:07.921Z,-1.37
2022-12-15T12:48:39.843Z,-1.33
2022-12-15T12:51:24.212Z,-1.30
2022-12-15T12:53:52.784Z,-1.26
2022-12-15T12:56:33.275Z,-1.25
2022-12-15T12:59:01.716Z,-1.23
2022-12-15T13:01:34.930Z,-1.21
2022-12-15T13:04:08.873Z,-1.16
2022-12-15T13:07:04.617Z,-1.13
2022-12-15T13:09:40.597Z,-1.06
2022-12-15T13:12:53.492Z,-1.06
2022-12-15T13:15:39.718Z,-0.97
2022-12-15T13:18:22.552Z,-0.98
2022-12-15T13:20:54.481Z,-0.99
2022-12-15T13:23:42.094Z,-0.97
2022-12-15T13:26:15.014Z,-0.92
2022-12-15T13:28:50.628Z,-0.95
2022-12-15T13:31:27.472Z,-0.94
2022-12-15T13:34:04.262Z,-0.93
2022-12-15T13:37:00.249Z,-0.95
2022-12-15T13:39:59.858Z,-0.96
2022-12-15T13:42:41.477Z,-0.94
2022-12-15T13:45:48.643Z,-0.95
2022-12-15T13:48:38.067Z,-0.93
2022-12-15T13:51:31.245Z,-0.89
2022-12-15T13:54:15.301Z,-0.91
2022-12-15T13:57:04.768Z,-0.94
2022-12-15T13:59:42.075Z,-0.93
2022-12-15T14:02:25.702Z,-0.94
2022-12-15T14:05:15.949Z,-0.93
2022-12-15T14:07:54.187Z,-0.91
2022-12-15T14:10:26.360Z,-0.93
2022-12-15T14:15:53.453Z,-0.97
2022-12-15T14:18:34.207Z,-1.00
2022-12-15T14:21:07.871Z,-1.02
2022-12-15T14:23:52.487Z,-1.03
2022-12-15T14:26:32.199Z,-1.08
2022-12-15T14:29:02.688Z,-1.08
2022-12-15T14:31:31.156Z,-1.07
2022-12-15T14:34:03.460Z,-1.14
2022-12-15T14:36:33.534Z,-1.22
2022-12-15T14:39:04.090Z,-1.25
2022-12-15T14:41:33.192Z,-1.27
2022-12-15T14:44:31.692Z,-1.30
2022-12-15T14:46:51.836Z,-1.26
2022-12-15T14:49:23.694Z,-1.37
2022-12-15T14:51:54.855Z,-1.44
2022-12-15T14:54:31.085Z,-1.49
2022-12-15T14:57:01.733Z,-1.53
2022-12-15T14:59:32.551Z,-1.56
2022-12-15T15:02:03.717Z,-1.58
2022-12-15T15:03:09.090Z,-2.67
2022-12-15T15:04:32.377Z,-1.63
2022-12-15T15:07:01.807Z,-1.66
2022-12-15T15:09:34.735Z,-1.69
2022-12-15T15:12:03.829Z,-1.72
2022-12-15T15:14:32.811Z,-1.76
2022-12-15T15:17:02.186Z,-1.78
2022-12-15T15:19:33.555Z,-1.82
2022-12-15T15:22:05.221Z,-1.85
2022-12-15T15:24:36.204Z,-1.84
2022-12-15T15:27:24.459Z,-1.88
2022-12-15T15:29:52.804Z,-2.03
2022-12-15T15:32:21.766Z,-2.08
2022-12-15T15:34:51.166Z,-2.13
2022-12-15T15:37:19.979Z,-2.17
2022-12-15T15:39:50.398Z,-2.19
2022-12-15T15:42:18.502Z,-2.27
2022-12-15T15:44:45.954Z,-2.32
2022-12-15T15:47:20.047Z,-2.36
2022-12-15T15:49:47.895Z,-2.39
2022-12-15T15:52:15.369Z,-2.43
2022-12-15T15:54:43.566Z,-2.48
2022-12-15T15:57:15.252Z,-2.51
2022-12-15T15:59:44.052Z,-2.56
2022-12-15T16:02:13.348Z,-2.61
2022-12-15T16:04:42.166Z,-2.54
2022-12-15T16:07:35.236Z,-2.63
2022-12-15T16:10:04.372Z,-2.86
2022-12-15T16:12:37.704Z,-2.98
2022-12-15T16:15:10.113Z,-3.03
2022-12-15T16:17:40.716Z,-3.07
2022-12-15T16:20:09.846Z,-3.10
2022-12-15T16:22:38.713Z,-3.14
2022-12-15T16:25:08.708Z,-3.18
2022-12-15T16:27:37.512Z,-3.22
2022-12-15T16:30:07.170Z,-3.24
2022-12-15T16:32:36.724Z,-3.28
2022-12-15T16:35:04.898Z,-3.30
2022-12-15T16:37:37.817Z,-3.31
2022-12-15T16:40:14.668Z,-3.39
2022-12-15T16:42:43.798Z,-3.45
2022-12-15T16:45:15.299Z,-3.56
2022-12-15T16:47:42.799Z,-3.70
2022-12-15T16:50:12.969Z,-3.82
2022-12-15T16:52:40.867Z,-3.84
2022-12-15T16:55:11.098Z,-3.92
2022-12-15T16:57:38.687Z,-4.05
2022-12-15T17:00:15.319Z,-4.14
2022-12-15T17:02:43.712Z,-4.20
2022-12-15T17:05:11.748Z,-4.23
2022-12-15T17:07:40.459Z,-4.26
2022-12-15T17:10:08.686Z,-4.26
2022-12-15T17:12:37.869Z,-4.29
2022-12-15T17:15:10.113Z,-4.33
2022-12-15T17:17:39.383Z,-4.36
2022-12-15T17:23:00.705Z,-4.44
2022-12-15T17:26:09.229Z,-4.47
2022-12-15T17:28:24.475Z,-4.48
2022-12-15T17:30:52.526Z,-4.54
2022-12-15T17:33:22.756Z,-4.59
2022-12-15T17:35:51.530Z,-4.64
2022-12-15T17:38:20.335Z,-4.70
2022-12-15T17:40:49.165Z,-4.75
2022-12-15T17:43:17.971Z,-4.79
2022-12-15T17:45:50.438Z,-4.86
2022-12-15T17:48:18.207Z,-4.89
2022-12-15T17:50:49.963Z,-4.93
2022-12-15T17:53:18.596Z,-4.92
2022-12-15T17:55:46.137Z,-4.95
2022-12-15T17:58:17.541Z,-5.02
2022-12-15T18:00:49.175Z,-4.97
2022-12-15T18:03:17.371Z,-5.10
2022-12-15T18:05:48.109Z,-5.22
2022-12-15T18:08:16.912Z,-5.24
2022-12-15T18:10:45.012Z,-5.28
2022-12-15T18:13:16.243Z,-5.30
2022-12-15T18:15:43.995Z,-5.32
2022-12-15T18:18:11.989Z,-5.33
2022-12-15T18:20:44.805Z,-5.33
2022-12-15T18:23:15.714Z,-5.30
2022-12-15T18:25:43.929Z,-5.29
2022-12-15T18:28:19.758Z,-5.27
2022-12-15T18:30:50.720Z,-5.19
2022-12-15T18:33:19.450Z,-5.19
2022-12-15T18:35:47.949Z,-5.23
2022-12-15T18:38:17.928Z,-5.25
2022-12-15T18:40:46.507Z,-5.23
2022-12-15T18:43:15.484Z,-5.20
2022-12-15T18:45:43.394Z,-5.21
2022-12-15T18:48:19.190Z,-5.21
2022-12-15T18:50:47.171Z,-5.24
2022-12-15T18:53:19.651Z,-5.25
2022-12-15T18:55:47.959Z,-5.27
2022-12-15T18:58:22.343Z,-5.27
2022-12-15T19:00:50.768Z,-5.26
2022-12-15T19:03:21.898Z,-5.27
2022-12-15T19:05:49.612Z,-5.33
2022-12-15T19:08:20.352Z,-5.34
2022-12-15T19:10:50.694Z,-5.39
2022-12-15T19:13:18.979Z,-5.44
2022-12-15T19:15:47.530Z,-5.45
2022-12-15T19:18:32.875Z,-5.46
2022-12-15T19:21:21.544Z,-5.48
2022-12-15T19:23:51.421Z,-5.50
2022-12-15T19:26:20.338Z,-5.52
2022-12-15T19:28:47.805Z,-5.53
2022-12-15T19:31:15.306Z,-5.56
2022-12-15T19:33:42.861Z,-5.57
2022-12-15T19:36:15.343Z,-5.59
2022-12-15T19:38:43.223Z,-5.59
2022-12-15T19:41:14.668Z,-5.60
2022-12-15T19:43:42.274Z,-5.57
2022-12-15T19:46:12.558Z,-5.70
2022-12-15T19:48:41.083Z,-5.84
2022-12-15T19:51:13.797Z,-5.86
2022-12-15T19:53:44.241Z,-5.88
2022-12-15T19:56:15.701Z,-5.89
2022-12-15T19:58:43.938Z,-5.86
2022-12-15T20:01:14.616Z,-5.88
2022-12-15T20:03:42.295Z,-5.88
2022-12-15T20:06:14.807Z,-5.88
2022-12-15T20:08:45.696Z,-5.91
2022-12-15T20:11:18.300Z,-5.93
2022-12-15T20:13:46.157Z,-5.95
2022-12-15T20:16:17.155Z,-5.95
2022-12-15T20:18:45.352Z,-6.00
2022-12-15T20:21:17.918Z,-6.03
2022-12-15T20:23:49.852Z,-6.06
2022-12-15T20:26:19.491Z,-6.08
2022-12-15T20:28:48.245Z,-6.11
2022-12-15T20:31:16.881Z,-6.14
2022-12-15T20:33:48.794Z,-6.17
2022-12-15T20:36:18.713Z,-6.20
2022-12-15T20:38:46.628Z,-6.23
2022-12-15T20:41:16.986Z,-6.26
2022-12-15T20:43:46.349Z,-6.29
2022-12-15T20:46:16.376Z,-6.32
2022-12-15T20:48:45.728Z,-6.34
2022-12-15T20:51:15.682Z,-6.38
2022-12-15T20:53:43.735Z,-6.40
2022-12-15T20:56:36.601Z,-6.44
2022-12-15T20:59:07.487Z,-6.44
2022-12-15T21:01:37.768Z,-6.48
2022-12-15T21:04:20.437Z,-6.49
2022-12-15T21:06:54.307Z,-6.53
2022-12-15T21:09:22.442Z,-6.55
2022-12-15T21:11:51.693Z,-6.57
2022-12-15T21:14:22.576Z,-6.60
2022-12-15T21:16:50.418Z,-6.64
2022-12-15T21:19:21.399Z,-6.67
2022-12-15T21:21:52.040Z,-6.68
2022-12-15T21:24:22.654Z,-6.69
2022-12-15T21:26:52.714Z,-6.72
2022-12-15T21:29:27.391Z,-6.72
2022-12-15T21:31:55.715Z,-6.80
2022-12-15T21:34:23.402Z,-6.83
2022-12-15T21:36:52.583Z,-6.87
2022-12-15T21:39:24.698Z,-6.89
2022-12-15T21:41:55.118Z,-6.90
2022-12-15T21:44:22.661Z,-6.92
2022-12-15T21:46:51.677Z,-6.91
2022-12-15T21:49:18.788Z,-6.93
2022-12-15T21:51:48.060Z,-6.96
2022-12-15T21:54:18.238Z,-6.97
2022-12-15T21:56:46.179Z,-7.00
2022-12-15T21:59:16.017Z,-7.01
2022-12-15T22:01:43.899Z,-7.03
2022-12-15T22:04:17.137Z,-7.05
2022-12-15T22:06:48.757Z,-7.07
2022-12-15T22:09:19.536Z,-7.08
2022-12-15T22:11:48.389Z,-7.11
2022-12-15T22:14:17.270Z,-7.11
2022-12-15T22:16:44.759Z,-7.12
2022-12-15T22:19:12.782Z,-7.16
2022-12-15T22:21:42.811Z,-7.17
2022-12-15T22:24:10.510Z,-7.18
2022-12-15T22:26:38.915Z,-7.20
2022-12-15T22:29:11.703Z,-7.23
2022-12-15T22:31:39.416Z,-7.26
2022-12-15T22:34:12.679Z,-7.29
2022-12-15T22:36:40.219Z,-7.32
2022-12-15T22:39:10.938Z,-7.36
2022-12-15T22:41:39.889Z,-7.38
2022-12-15T22:44:12.975Z,-7.39
2022-12-15T22:46:40.617Z,-7.39
2022-12-15T22:49:10.329Z,-7.40
2022-12-15T22:51:37.912Z,-7.43
2022-12-15T22:54:15.801Z,-7.41
2022-12-15T22:56:43.280Z,-7.41
2022-12-15T22:59:16.192Z,-7.45
2022-12-15T23:01:45.104Z,-7.48
2022-12-15T23:04:12.797Z,-7.49
2022-12-15T23:06:42.200Z,-7.45
2022-12-15T23:09:11.033Z,-7.52
2022-12-15T23:11:37.532Z,-7.56
2022-12-15T23:14:05.658Z,-7.58
2022-12-15T23:16:34.396Z,-7.59
2022-12-15T23:19:03.361Z,-7.61
2022-12-15T23:21:31.061Z,-7.64
2022-12-15T23:23:58.579Z,-7.64
2022-12-15T23:26:27.439Z,-7.64
2022-12-15T23:28:55.945Z,-7.70
2022-12-15T23:31:24.125Z,-7.74
2022-12-15T23:33:52.676Z,-7.78
2022-12-15T23:36:20.376Z,-7.76
2022-12-15T23:38:47.835Z,-7.78
2022-12-15T23:41:17.719Z,-7.85
2022-12-15T23:43:46.524Z,-7.88
2022-12-15T23:46:14.968Z,-7.88
2022-12-15T23:48:43.465Z,-7.89
2022-12-15T23:51:12.307Z,-7.89
2022-12-15T23:53:40.224Z,-7.90
2022-12-15T23:56:10.811Z,-7.91
2022-12-15T23:58:39.268Z,-7.91
